Time;durP1;ratioP1;P1;durP2;ratioP2;P2;SDS_P1;SDS_P2;PMS_P1;PMS_P2;Temp;Humidity;BMP_temperature;BMP_pressure;BME280_temperature;BME280_humidity;BME280_pressure;Samples;Min_cycle;Max_cycle;Signal;HPM_P1;HPM_P2
2022/05/28 00:00:45;;;;;;;10.53;10.23;;;11.40;99.90;;;;;;5122583;27;20273;-81
2022/05/28 00:03:13;;;;;;;10.50;10.20;;;11.40;99.90;;;;;;5122085;27;20220;-82
2022/05/28 00:05:42;;;;;;;10.40;10.10;;;11.40;99.90;;;;;;5122169;27;20228;-82
2022/05/28 00:08:10;;;;;;;10.70;10.40;;;11.40;99.90;;;;;;5122307;27;20268;-82
2022/05/28 00:10:40;;;;;;;10.57;10.27;;;11.40;99.90;;;;;;5121857;27;20342;-82
2022/05/28 00:13:08;;;;;;;10.50;10.20;;;11.40;99.90;;;;;;5120948;27;20233;-82
2022/05/28 00:15:37;;;;;;;10.70;10.40;;;11.40;99.90;;;;;;5121026;28;20267;-82
2022/05/28 00:18:05;;;;;;;10.50;10.20;;;11.30;99.90;;;;;;5121027;28;20218;-82
2022/05/28 00:20:33;;;;;;;10.70;10.40;;;11.30;99.90;;;;;;5121401;27;20217;-82
2022/05/28 00:23:04;;;;;;;10.50;10.20;;;11.30;99.90;;;;;;5120921;28;20233;-82
2022/05/28 00:25:34;;;;;;;10.50;10.20;;;11.20;99.90;;;;;;5109701;28;20237;-82
2022/05/28 00:28:07;;;;;;;10.70;10.40;;;11.20;99.90;;;;;;5108210;28;20229;-81
2022/05/28 00:30:35;;;;;;;10.60;10.30;;;11.20;99.90;;;;;;5107858;28;20229;-82
2022/05/28 00:33:04;;;;;;;10.77;10.47;;;11.10;99.90;;;;;;5106705;28;20218;-82
2022/05/28 00:35:32;;;;;;;10.70;10.40;;;11.10;99.90;;;;;;5105338;28;20295;-82
2022/05/28 00:38:01;;;;;;;10.80;10.50;;;11.10;99.90;;;;;;5106052;28;20261;-82
2022/05/28 00:40:29;;;;;;;10.87;10.57;;;11.00;99.90;;;;;;5104870;28;20225;-82
2022/05/28 00:43:00;;;;;;;10.80;10.50;;;11.00;99.90;;;;;;5106541;28;20271;-82
2022/05/28 00:45:32;;;;;;;10.87;10.57;;;10.90;99.90;;;;;;5105564;28;20233;-82
2022/05/28 00:48:05;;;;;;;10.90;10.60;;;10.90;99.90;;;;;;5105325;28;20229;-82
2022/05/28 00:50:36;;;;;;;10.83;10.53;;;10.90;99.90;;;;;;5103723;28;20233;-81
2022/05/28 00:53:06;;;;;;;10.70;10.40;;;10.80;99.90;;;;;;5104381;28;20240;-82
2022/05/28 00:55:36;;;;;;;10.53;10.23;;;10.80;99.90;;;;;;5104342;28;20218;-82
2022/05/28 00:58:08;;;;;;;10.93;10.63;;;10.80;99.90;;;;;;5104153;28;20233;-82
2022/05/28 01:00:39;;;;;;;10.90;10.60;;;10.70;99.90;;;;;;5103702;28;20241;-81
2022/05/28 01:03:14;;;;;;;10.63;10.33;;;10.60;99.90;;;;;;5103007;28;20332;-81
2022/05/28 01:05:52;;;;;;;10.90;10.60;;;10.60;99.90;;;;;;5102993;28;20298;-82
2022/05/28 01:08:29;;;;;;;11.00;10.70;;;10.50;99.90;;;;;;5103154;28;20295;-82
2022/05/28 01:11:07;;;;;;;10.83;10.53;;;10.50;99.90;;;;;;5102752;28;20241;-81
2022/05/28 01:13:40;;;;;;;10.97;10.67;;;10.50;99.90;;;;;;5103356;28;20233;-82
2022/05/28 01:16:17;;;;;;;11.10;10.80;;;10.40;99.90;;;;;;5103420;28;20230;-82
2022/05/28 01:18:51;;;;;;;11.20;10.90;;;10.30;99.90;;;;;;5102362;28;20239;-81
2022/05/28 01:21:32;;;;;;;10.87;10.57;;;10.20;99.90;;;;;;5102542;28;20237;-82
2022/05/28 01:24:10;;;;;;;10.93;10.63;;;10.10;99.90;;;;;;5102888;28;20225;-82
2022/05/28 01:26:59;;;;;;;11.03;10.73;;;10.10;99.90;;;;;;5102566;28;20221;-81
2022/05/28 01:29:36;;;;;;;10.83;10.53;;;10.00;99.90;;;;;;5102292;28;20237;-82
2022/05/28 01:32:05;;;;;;;10.90;10.60;;;10.00;99.90;;;;;;5103597;28;20236;-81
2022/05/28 01:34:34;;;;;;;10.87;10.57;;;9.90;99.90;;;;;;5103540;28;20225;-82
2022/05/28 01:37:03;;;;;;;11.17;10.87;;;9.90;99.90;;;;;;5102644;28;20257;-81
2022/05/28 01:39:35;;;;;;;11.00;10.70;;;9.90;99.90;;;;;;5103186;28;20230;-81
2022/05/28 01:42:07;;;;;;;10.67;10.37;;;9.90;99.90;;;;;;5103014;28;20320;-81
2022/05/28 01:44:37;;;;;;;10.90;10.60;;;9.80;99.90;;;;;;5103288;28;20218;-82
2022/05/28 01:47:10;;;;;;;11.13;10.83;;;9.70;99.90;;;;;;5102361;28;20359;-82
2022/05/28 01:49:39;;;;;;;11.10;10.80;;;9.70;99.90;;;;;;5102096;28;20233;-81
2022/05/28 01:52:09;;;;;;;10.90;10.60;;;9.60;99.90;;;;;;5102050;28;20230;-81
2022/05/28 01:55:14;;;;;;;10.83;10.53;;;9.60;99.90;;;;;;5101634;28;20234;-82
2022/05/28 01:57:43;;;;;;;10.80;10.50;;;9.50;99.90;;;;;;5103019;28;20339;-81
2022/05/28 02:00:14;;;;;;;10.80;10.50;;;9.40;99.90;;;;;;5101701;28;20325;-82
2022/05/28 02:02:43;;;;;;;11.00;10.70;;;9.40;99.90;;;;;;5101268;28;20234;-81
2022/05/28 02:05:17;;;;;;;11.00;10.70;;;9.40;99.90;;;;;;5101624;28;20233;-82
2022/05/28 02:07:56;;;;;;;10.80;10.50;;;9.40;99.90;;;;;;5107294;28;20218;-81
2022/05/28 02:10:31;;;;;;;10.77;10.47;;;9.30;99.90;;;;;;5106976;28;20252;-82
2022/05/28 02:13:13;;;;;;;10.80;10.50;;;9.30;99.90;;;;;;5105599;28;20229;-82
2022/05/28 02:15:52;;;;;;;10.80;10.50;;;9.30;99.90;;;;;;5101996;28;20328;-82
2022/05/28 02:18:54;;;;;;;10.70;10.40;;;9.30;99.90;;;;;;5102643;28;20221;-81
2022/05/28 02:21:44;;;;;;;10.70;10.40;;;9.20;99.90;;;;;;5101475;28;20228;-81
2022/05/28 02:24:30;;;;;;;10.80;10.50;;;9.10;99.90;;;;;;5100199;28;20296;-82
2022/05/28 02:27:08;;;;;;;10.90;10.60;;;9.10;99.90;;;;;;5100694;28;20236;-82
2022/05/28 02:29:41;;;;;;;10.80;10.50;;;9.00;99.90;;;;;;5100607;28;20213;-81
2022/05/28 02:32:22;;;;;;;10.80;10.50;;;9.00;99.90;;;;;;5099987;28;20237;-82
2022/05/28 02:34:55;;;;;;;10.80;10.50;;;8.90;99.90;;;;;;5099746;28;20328;-81
2022/05/28 02:37:30;;;;;;;10.70;10.40;;;8.80;99.90;;;;;;5100180;28;20260;-81
2022/05/28 02:39:58;;;;;;;10.80;10.50;;;8.80;99.90;;;;;;5100528;28;20230;-82
2022/05/28 02:42:27;;;;;;;10.73;10.43;;;8.80;99.90;;;;;;5100298;28;20233;-82
2022/05/28 02:45:10;;;;;;;11.07;10.77;;;8.80;99.90;;;;;;5100068;28;20251;-82
2022/05/28 02:47:41;;;;;;;10.90;10.60;;;8.70;99.90;;;;;;5100671;28;20240;-81
2022/05/28 02:50:10;;;;;;;10.80;10.50;;;8.60;99.90;;;;;;5099583;28;20214;-82
2022/05/28 02:52:42;;;;;;;11.20;10.90;;;8.60;99.90;;;;;;5100112;28;20233;-81
2022/05/28 02:55:11;;;;;;;11.10;10.80;;;8.60;99.90;;;;;;5109433;28;20241;-81
2022/05/28 02:57:40;;;;;;;11.03;10.73;;;8.60;99.90;;;;;;5102143;28;20236;-82
2022/05/28 03:00:14;;;;;;;10.87;10.57;;;8.60;99.90;;;;;;5100991;28;20234;-82
2022/05/28 03:02:54;;;;;;;11.10;10.80;;;8.60;99.90;;;;;;5100701;28;20320;-81
2022/05/28 03:05:26;;;;;;;11.10;10.80;;;8.60;99.90;;;;;;5100770;28;20277;-82
2022/05/28 03:08:05;;;;;;;11.30;10.90;;;8.60;99.90;;;;;;5100661;28;20229;-82
2022/05/28 03:10:34;;;;;;;11.10;10.80;;;8.60;99.90;;;;;;5100536;28;20236;-83
2022/05/28 03:13:03;;;;;;;11.10;10.80;;;8.60;99.90;;;;;;5111485;27;20225;-81
2022/05/28 03:15:35;;;;;;;10.83;10.53;;;8.60;99.90;;;;;;5101209;28;20271;-82
2022/05/28 03:18:03;;;;;;;10.90;10.60;;;8.60;99.90;;;;;;5099192;28;20299;-82
2022/05/28 03:20:32;;;;;;;11.17;10.87;;;8.60;99.90;;;;;;5101710;28;20293;-81
2022/05/28 03:23:01;;;;;;;11.00;10.70;;;8.60;99.90;;;;;;5100350;28;20287;-81
2022/05/28 03:25:29;;;;;;;10.90;10.60;;;8.60;99.90;;;;;;5100041;28;20316;-83
2022/05/28 03:27:57;;;;;;;11.40;11.00;;;8.60;99.90;;;;;;5099291;28;20234;-82
2022/05/28 03:30:27;;;;;;;11.07;10.77;;;8.50;99.90;;;;;;5099844;28;20257;-82
2022/05/28 03:33:04;;;;;;;11.00;10.70;;;8.50;99.90;;;;;;5100057;28;20225;-82
2022/05/28 03:35:33;;;;;;;11.00;10.70;;;8.40;99.90;;;;;;5099201;28;20228;-82
2022/05/28 03:38:04;;;;;;;10.97;10.67;;;8.40;99.90;;;;;;5099808;28;20232;-81
2022/05/28 03:40:32;;;;;;;10.90;10.60;;;8.40;99.90;;;;;;5098971;28;20229;-82
2022/05/28 03:43:03;;;;;;;10.77;10.47;;;8.40;99.90;;;;;;5098969;28;20243;-82
2022/05/28 03:45:31;;;;;;;10.80;10.50;;;8.30;99.90;;;;;;5099405;28;20252;-81
2022/05/28 03:48:01;;;;;;;11.10;10.80;;;8.30;99.90;;;;;;5098902;28;20233;-82
2022/05/28 03:50:35;;;;;;;11.00;10.70;;;8.30;99.90;;;;;;5099457;28;20251;-81
2022/05/28 03:53:05;;;;;;;10.70;10.40;;;8.30;99.90;;;;;;5099166;28;20229;-81
2022/05/28 03:55:35;;;;;;;10.70;10.40;;;8.20;99.90;;;;;;5099214;28;20328;-81
2022/05/28 03:58:09;;;;;;;10.73;10.43;;;8.20;99.90;;;;;;5100713;28;20221;-82
2022/05/28 04:00:40;;;;;;;10.83;10.53;;;8.20;99.90;;;;;;5111873;27;20233;-81
2022/05/28 04:03:12;;;;;;;10.70;10.40;;;8.20;99.90;;;;;;5101889;28;20332;-82
2022/05/28 04:05:40;;;;;;;10.83;10.53;;;8.20;99.90;;;;;;5098040;28;20316;-82
2022/05/28 04:08:12;;;;;;;10.80;10.50;;;8.20;99.90;;;;;;5099122;28;20225;-82
2022/05/28 04:10:40;;;;;;;10.87;10.57;;;8.20;99.90;;;;;;5123437;22;20208;-86
2022/05/28 04:13:12;;;;;;;10.60;10.30;;;8.30;99.90;;;;;;5126067;27;20233;-84
2022/05/28 04:15:42;;;;;;;10.63;10.33;;;8.30;99.90;;;;;;5126093;28;20233;-84
2022/05/28 04:18:20;;;;;;;10.50;10.20;;;8.20;99.90;;;;;;5126343;28;20251;-86
2022/05/28 04:20:50;;;;;;;10.97;10.67;;;8.30;99.90;;;;;;5124984;28;20225;-85
2022/05/28 04:23:19;;;;;;;10.87;10.57;;;8.30;99.90;;;;;;5124965;28;20243;-85
2022/05/28 04:25:49;;;;;;;10.70;10.40;;;8.30;99.90;;;;;;5127894;27;20224;-86
2022/05/28 04:28:18;;;;;;;10.60;10.30;;;8.40;99.90;;;;;;5129263;28;20289;-84
2022/05/28 04:30:47;;;;;;;10.70;10.40;;;8.40;99.90;;;;;;5129084;27;20232;-85
2022/05/28 04:36:04;;;;;;;10.70;10.40;;;8.50;99.90;;;;;;5129254;28;20225;-85
2022/05/28 04:38:33;;;;;;;10.63;10.33;;;8.60;99.90;;;;;;5129235;28;20232;-86
2022/05/28 04:41:03;;;;;;;10.50;10.20;;;8.60;99.90;;;;;;5129302;27;20302;-86
2022/05/28 04:43:32;;;;;;;10.70;10.40;;;8.60;99.90;;;;;;5128529;28;20242;-86
2022/05/28 04:46:02;;;;;;;10.70;10.40;;;8.70;99.90;;;;;;5127998;28;20286;-85
2022/05/28 04:48:40;;;;;;;10.70;10.40;;;8.80;99.90;;;;;;5128171;28;20301;-85
2022/05/28 04:51:09;;;;;;;10.63;10.33;;;8.80;99.90;;;;;;5127868;28;20225;-85
2022/05/28 04:53:39;;;;;;;10.53;10.23;;;8.90;99.90;;;;;;5127816;28;20236;-85
2022/05/28 04:56:08;;;;;;;10.37;10.07;;;8.90;99.90;;;;;;5127663;28;20240;-85
2022/05/28 04:58:38;;;;;;;10.40;10.10;;;9.00;99.90;;;;;;5129404;28;20232;-85
2022/05/28 05:01:07;;;;;;;10.47;10.17;;;9.00;99.90;;;;;;5127548;27;20224;-85
2022/05/28 05:03:45;;;;;;;10.60;10.30;;;9.10;99.90;;;;;;5128183;28;20239;-85
2022/05/28 05:06:15;;;;;;;10.60;10.30;;;9.20;99.90;;;;;;5128582;28;20232;-85
2022/05/28 05:08:44;;;;;;;10.40;10.10;;;9.30;99.90;;;;;;5139719;27;20209;-83
2022/05/28 05:11:14;;;;;;;10.27;9.97;;;9.40;99.90;;;;;;5142113;27;20216;-85
2022/05/28 05:13:43;;;;;;;10.50;10.20;;;9.50;99.90;;;;;;5142614;27;20247;-84
2022/05/28 05:16:13;;;;;;;10.57;10.27;;;9.60;99.90;;;;;;5142342;27;20201;-84
2022/05/28 05:18:45;;;;;;;10.40;10.10;;;9.60;99.90;;;;;;5139600;27;20283;-85
2022/05/28 05:21:20;;;;;;;10.70;10.40;;;9.70;99.90;;;;;;5134599;27;20219;-86
2022/05/28 05:23:50;;;;;;;10.60;10.30;;;9.80;99.90;;;;;;5130734;28;20232;-86
2022/05/28 05:26:21;;;;;;;10.43;10.13;;;9.80;99.90;;;;;;5129961;28;20233;-86
2022/05/28 05:28:49;;;;;;;10.47;10.17;;;9.80;99.90;;;;;;5128809;28;20233;-86
2022/05/28 05:31:19;;;;;;;10.50;10.20;;;9.90;99.90;;;;;;5127491;27;20240;-85
2022/05/28 05:33:51;;;;;;;10.40;10.10;;;10.00;99.90;;;;;;5127499;28;20233;-85
2022/05/28 05:36:19;;;;;;;10.57;10.27;;;10.10;99.90;;;;;;5126042;27;20225;-86
2022/05/28 05:38:47;;;;;;;10.90;10.60;;;10.20;99.90;;;;;;5128359;28;20228;-86
2022/05/28 05:41:16;;;;;;;10.33;10.03;;;10.30;99.90;;;;;;5127104;27;20264;-86
2022/05/28 05:43:46;;;;;;;10.40;10.10;;;10.40;99.90;;;;;;5126097;28;20266;-86
2022/05/28 05:46:15;;;;;;;10.70;10.40;;;10.40;99.90;;;;;;5127098;28;20278;-86
2022/05/28 05:48:44;;;;;;;10.50;10.20;;;10.50;99.90;;;;;;5127061;28;20225;-86
2022/05/28 05:51:23;;;;;;;10.53;10.23;;;10.50;99.90;;;;;;5126766;27;20232;-85
2022/05/28 05:53:53;;;;;;;10.40;10.10;;;10.50;99.90;;;;;;5126692;28;20331;-86
2022/05/28 05:56:21;;;;;;;10.30;10.00;;;10.60;99.90;;;;;;5126566;28;20232;-85
2022/05/28 05:58:51;;;;;;;10.53;10.23;;;10.60;99.90;;;;;;5127144;28;20223;-86
2022/05/28 06:01:20;;;;;;;10.30;10.00;;;10.60;99.90;;;;;;5127088;27;20228;-85
2022/05/28 06:03:50;;;;;;;10.50;10.20;;;10.70;99.90;;;;;;5126488;28;20279;-86
2022/05/28 06:06:28;;;;;;;10.80;10.50;;;10.80;99.90;;;;;;5126256;28;20237;-86
2022/05/28 06:08:58;;;;;;;10.70;10.40;;;10.90;99.90;;;;;;5127268;28;20228;-86
2022/05/28 06:11:28;;;;;;;10.60;10.30;;;11.00;99.90;;;;;;5131155;27;20224;-86
2022/05/28 06:13:59;;;;;;;10.57;10.27;;;11.10;99.90;;;;;;5123994;28;20769;-86
2022/05/28 06:16:28;;;;;;;10.70;10.40;;;11.20;99.90;;;;;;5124730;28;20262;-86
2022/05/28 06:18:57;;;;;;;10.67;10.37;;;11.30;99.90;;;;;;5125871;28;20348;-86
2022/05/28 06:21:37;;;;;;;10.67;10.37;;;11.30;99.90;;;;;;5125671;27;20221;-86
2022/05/28 06:24:06;;;;;;;10.60;10.30;;;11.30;99.90;;;;;;5126892;28;20237;-86
2022/05/28 06:26:34;;;;;;;10.53;10.23;;;11.30;99.90;;;;;;5126003;27;20232;-86
2022/05/28 06:29:03;;;;;;;10.60;10.30;;;11.40;99.90;;;;;;5127438;28;20233;-86
2022/05/28 06:31:33;;;;;;;10.70;10.40;;;11.40;99.90;;;;;;5127786;27;20250;-86
2022/05/28 06:34:02;;;;;;;10.70;10.40;;;11.50;99.90;;;;;;5127918;28;20274;-86
2022/05/28 06:36:42;;;;;;;10.60;10.30;;;11.40;99.90;;;;;;5127703;28;20250;-86
2022/05/28 06:39:10;;;;;;;10.47;10.17;;;11.40;99.90;;;;;;5126936;28;20313;-86
2022/05/28 06:41:39;;;;;;;10.73;10.43;;;11.50;99.90;;;;;;5127291;28;20216;-86
2022/05/28 06:44:09;;;;;;;10.80;10.50;;;11.60;99.90;;;;;;5127990;27;20237;-86
2022/05/28 06:46:38;;;;;;;11.00;10.70;;;11.70;99.90;;;;;;5128383;28;20254;-86
2022/05/28 06:49:08;;;;;;;10.97;10.67;;;11.80;99.90;;;;;;5126467;27;20285;-86
2022/05/28 06:51:47;;;;;;;11.03;10.73;;;11.90;99.90;;;;;;5126448;27;20247;-86
2022/05/28 06:54:15;;;;;;;11.03;10.73;;;12.00;99.90;;;;;;5127401;28;20227;-88
2022/05/28 06:56:45;;;;;;;11.47;11.07;;;12.00;99.90;;;;;;5126950;28;20275;-86
2022/05/28 06:59:14;;;;;;;11.00;10.70;;;12.00;99.90;;;;;;5125364;27;20311;-86
2022/05/28 07:01:43;;;;;;;10.93;10.63;;;12.00;99.90;;;;;;5126290;27;20240;-86
2022/05/28 07:04:13;;;;;;;10.97;10.67;;;12.10;99.90;;;;;;5126305;28;20298;-86
2022/05/28 07:06:45;;;;;;;10.63;10.33;;;12.20;99.90;;;;;;5125750;28;20228;-86
2022/05/28 07:09:13;;;;;;;11.07;10.77;;;12.30;99.90;;;;;;5124948;28;20236;-86
2022/05/28 07:11:42;;;;;;;10.90;10.60;;;12.40;99.90;;;;;;5124726;28;20232;-86
2022/05/28 07:14:11;;;;;;;11.03;10.73;;;12.50;99.90;;;;;;5125851;28;20244;-86
2022/05/28 07:16:40;;;;;;;10.77;10.47;;;12.50;99.90;;;;;;5126199;28;20310;-86
2022/05/28 07:19:10;;;;;;;11.03;10.73;;;12.50;99.90;;;;;;5126555;28;20225;-85
2022/05/28 07:21:39;;;;;;;11.00;10.70;;;12.60;99.90;;;;;;5126681;27;20233;-86
2022/05/28 07:24:18;;;;;;;10.73;10.43;;;12.60;99.90;;;;;;5125099;28;20237;-86
2022/05/28 07:26:47;;;;;;;10.80;10.50;;;12.80;99.90;;;;;;5131733;28;20233;-85
2022/05/28 07:29:16;;;;;;;10.80;10.50;;;12.90;99.90;;;;;;5138147;28;20224;-85
2022/05/28 07:31:46;;;;;;;10.80;10.50;;;12.80;99.90;;;;;;5131185;28;20237;-86
2022/05/28 07:34:15;;;;;;;10.93;10.63;;;12.80;99.90;;;;;;5130044;28;20252;-86
2022/05/28 07:36:45;;;;;;;10.60;10.30;;;12.80;99.90;;;;;;5127662;27;20259;-86
2022/05/28 07:39:24;;;;;;;10.40;10.10;;;12.70;99.90;;;;;;5127245;28;20259;-87
2022/05/28 07:41:52;;;;;;;10.70;10.40;;;12.60;99.90;;;;;;5126708;27;20258;-86
2022/05/28 07:44:22;;;;;;;10.60;10.30;;;12.70;99.90;;;;;;5127019;28;20232;-86
2022/05/28 07:46:51;;;;;;;10.47;10.17;;;12.80;99.90;;;;;;5128238;28;20232;-86
2022/05/28 07:49:21;;;;;;;10.20;9.90;;;12.70;99.90;;;;;;5128166;28;20239;-86
2022/05/28 07:51:51;;;;;;;10.67;10.37;;;12.90;99.90;;;;;;5138626;27;20239;-85
2022/05/28 07:54:22;;;;;;;10.53;10.23;;;13.00;99.90;;;;;;5140464;27;20225;-86
2022/05/28 07:56:52;;;;;;;10.50;10.20;;;13.00;99.90;;;;;;5139980;27;20266;-84
2022/05/28 07:59:20;;;;;;;10.37;10.07;;;13.00;99.90;;;;;;5131446;27;20248;-86
2022/05/28 08:01:48;;;;;;;10.27;9.97;;;13.00;99.90;;;;;;5126331;27;20260;-86
2022/05/28 08:04:19;;;;;;;10.50;10.20;;;13.10;99.90;;;;;;5126456;27;20240;-86
2022/05/28 08:06:47;;;;;;;10.30;10.00;;;13.10;99.90;;;;;;5127907;27;20287;-86
2022/05/28 08:09:16;;;;;;;10.50;10.20;;;13.20;99.90;;;;;;5127206;28;20225;-87
2022/05/28 08:11:55;;;;;;;10.60;10.30;;;13.20;99.90;;;;;;5126896;27;20233;-86
2022/05/28 08:14:27;;;;;;;10.50;10.20;;;13.30;99.90;;;;;;5127910;28;20229;-85
2022/05/28 08:16:55;;;;;;;10.60;10.30;;;13.30;99.90;;;;;;5128507;28;20259;-85
2022/05/28 08:19:25;;;;;;;10.50;10.20;;;13.30;99.90;;;;;;5128863;28;20220;-86
2022/05/28 08:24:41;;;;;;;10.90;10.60;;;13.50;99.90;;;;;;5127507;28;20236;-86
2022/05/28 08:27:13;;;;;;;10.90;10.60;;;13.50;99.90;;;;;;5127795;27;20229;-86
2022/05/28 08:29:41;;;;;;;10.93;10.63;;;13.60;99.90;;;;;;5126926;28;20229;-86
2022/05/28 08:32:09;;;;;;;10.90;10.60;;;13.70;99.90;;;;;;5126479;27;20225;-86
2022/05/28 08:34:49;;;;;;;10.73;10.43;;;13.90;99.90;;;;;;5127806;28;20225;-86
2022/05/28 08:37:17;;;;;;;10.80;10.50;;;13.80;99.90;;;;;;5128380;28;20242;-86
2022/05/28 08:39:46;;;;;;;10.70;10.40;;;13.80;99.90;;;;;;5127749;27;20236;-86
2022/05/28 08:42:25;;;;;;;10.63;10.33;;;14.00;99.90;;;;;;5127581;27;20232;-86
2022/05/28 08:44:55;;;;;;;10.77;10.47;;;14.20;99.90;;;;;;5127895;27;20336;-86
2022/05/28 08:47:33;;;;;;;10.73;10.43;;;14.20;99.90;;;;;;5129045;27;20255;-86
2022/05/28 08:50:02;;;;;;;10.73;10.43;;;13.90;99.90;;;;;;5128879;28;20220;-86
2022/05/28 08:52:35;;;;;;;10.50;10.20;;;14.00;99.90;;;;;;5128448;27;20244;-86
2022/05/28 08:55:09;;;;;;;10.70;10.40;;;14.00;99.90;;;;;;5128553;28;20229;-86
2022/05/28 08:57:58;;;;;;;10.80;10.50;;;13.80;99.90;;;;;;5127730;27;20235;-86
2022/05/28 09:00:46;;;;;;;10.60;10.30;;;13.70;99.90;;;;;;5127794;28;20231;-86
2022/05/28 09:03:23;;;;;;;10.57;10.27;;;13.60;99.90;;;;;;5129101;28;20216;-86
2022/05/28 09:06:00;;;;;;;10.90;10.60;;;13.60;99.90;;;;;;5127806;27;20228;-85
2022/05/28 09:11:26;;;;;;;10.60;10.30;;;13.70;99.90;;;;;;5125903;28;20228;-86
2022/05/28 09:14:21;;;;;;;10.60;10.30;;;13.50;99.90;;;;;;5129506;28;20221;-86
2022/05/28 09:16:51;;;;;;;11.00;10.70;;;13.50;99.90;;;;;;5127266;27;20224;-86
2022/05/28 09:19:22;;;;;;;10.63;10.33;;;13.60;99.90;;;;;;5127641;28;20266;-86
2022/05/28 09:21:50;;;;;;;10.93;10.63;;;13.80;99.90;;;;;;5126871;27;20236;-86
2022/05/28 09:24:21;;;;;;;10.70;10.40;;;14.00;99.90;;;;;;5127903;28;20236;-87
2022/05/28 09:27:06;;;;;;;10.80;10.50;;;14.30;99.90;;;;;;5128474;28;20221;-87
2022/05/28 09:30:02;;;;;;;10.50;10.20;;;14.60;99.90;;;;;;5130915;28;20275;-86
2022/05/28 09:32:42;;;;;;;10.70;10.40;;;15.00;99.90;;;;;;5127298;27;20307;-86
2022/05/28 09:35:18;;;;;;;10.70;10.40;;;14.90;99.90;;;;;;5127665;28;20224;-86
2022/05/28 09:37:57;;;;;;;10.88;10.57;;;15.00;99.90;;;;;;5127674;28;20220;-86
2022/05/28 09:40:38;;;;;;;10.80;10.50;;;15.00;99.90;;;;;;5127404;27;20282;-86
2022/05/28 09:43:48;;;;;;;10.70;10.40;;;15.30;99.90;;;;;;5126905;28;20211;-86
2022/05/28 09:46:28;;;;;;;10.57;10.27;;;15.80;99.90;;;;;;5129992;27;20242;-86
2022/05/28 09:49:06;;;;;;;10.43;10.13;;;15.60;99.90;;;;;;5129963;27;20235;-86
2022/05/28 09:51:35;;;;;;;10.40;10.10;;;15.50;99.90;;;;;;5129949;27;20235;-86
2022/05/28 09:54:20;;;;;;;10.27;9.98;;;15.20;99.90;;;;;;5128247;28;20255;-86
2022/05/28 09:57:00;;;;;;;10.35;10.05;;;15.20;99.90;;;;;;5128123;28;20233;-86
2022/05/28 09:59:39;;;;;;;10.50;10.20;;;15.20;99.90;;;;;;5129643;28;20274;-86
2022/05/28 10:02:18;;;;;;;10.73;10.43;;;14.90;99.90;;;;;;5128238;27;20239;-86
2022/05/28 10:04:49;;;;;;;10.75;10.45;;;15.00;99.90;;;;;;5128582;27;20258;-86
2022/05/28 10:07:32;;;;;;;10.43;10.13;;;15.50;99.90;;;;;;5128337;28;20223;-86
2022/05/28 10:10:01;;;;;;;10.60;10.30;;;15.90;99.90;;;;;;5129243;28;20229;-86
2022/05/28 10:12:31;;;;;;;10.85;10.55;;;16.10;99.90;;;;;;5152308;22;21073;-81
2022/05/28 10:15:05;;;;;;;10.70;10.40;;;16.00;99.90;;;;;;5107741;28;20267;-82
2022/05/28 10:17:36;;;;;;;10.60;10.30;;;15.70;99.90;;;;;;5110122;28;20229;-83
2022/05/28 10:20:17;;;;;;;10.70;10.40;;;16.00;99.90;;;;;;5105284;28;20233;-83
2022/05/28 10:22:46;;;;;;;10.60;10.30;;;16.00;99.90;;;;;;5112381;28;20241;-83
2022/05/28 10:25:31;;;;;;;10.65;10.35;;;15.80;99.90;;;;;;5110911;28;20226;-83
2022/05/28 10:28:02;;;;;;;10.40;10.10;;;15.10;99.90;;;;;;5112975;28;20221;-83
2022/05/28 10:30:35;;;;;;;10.70;10.40;;;14.60;99.90;;;;;;5114224;27;20237;-83
2022/05/28 10:33:09;;;;;;;10.70;10.40;;;14.70;99.90;;;;;;5119452;28;20233;-83
2022/05/28 10:35:37;;;;;;;10.73;10.43;;;15.10;99.90;;;;;;5120294;27;20233;-80
2022/05/28 10:38:14;;;;;;;10.93;10.63;;;15.70;99.90;;;;;;5120209;27;20202;-81
2022/05/28 10:43:46;;;;;;;10.85;10.55;;;16.90;99.90;;;;;;5119857;27;20213;-82
2022/05/28 10:46:38;;;;;;;10.55;10.25;;;17.30;99.90;;;;;;5119855;27;20221;-82
2022/05/28 10:49:26;;;;;;;11.00;10.70;;;17.80;99.90;;;;;;5119871;27;20206;-82
2022/05/28 10:52:06;;;;;;;10.70;10.40;;;17.80;99.90;;;;;;5120140;27;20265;-82
2022/05/28 10:55:06;;;;;;;10.98;10.68;;;17.30;99.90;;;;;;5118735;28;20237;-82
2022/05/28 10:58:03;;;;;;;11.10;10.80;;;17.10;99.90;;;;;;5120274;27;20225;-80
2022/05/28 11:00:45;;;;;;;10.90;10.60;;;16.70;99.90;;;;;;5117628;27;20248;-83
2022/05/28 11:03:58;;;;;;;10.40;10.10;;;16.40;99.90;;;;;;5120214;27;20210;-82
2022/05/28 11:07:20;;;;;;;10.23;9.93;;;16.20;99.90;;;;;;5105808;27;20225;-83
2022/05/28 11:10:07;;;;;;;10.18;9.88;;;15.70;99.90;;;;;;5120075;27;20214;-80
2022/05/28 11:13:10;;;;;;;10.00;9.70;;;16.10;99.90;;;;;;5119688;27;20243;-82
2022/05/28 11:16:08;;;;;;;10.02;9.73;;;16.40;99.90;;;;;;5120042;27;20216;-81
2022/05/28 11:19:00;;;;;;;10.40;10.10;;;16.90;99.90;;;;;;5119851;27;20281;-81
2022/05/28 11:21:52;;;;;;;10.40;10.10;;;17.00;99.90;;;;;;5119709;27;20236;-82
2022/05/28 11:25:03;;;;;;;10.15;9.85;;;17.30;99.90;;;;;;5118266;27;20205;-82
2022/05/28 11:27:53;;;;;;;10.52;10.23;;;17.20;99.90;;;;;;5102166;28;20236;-82
2022/05/28 11:33:28;;;;;;;10.30;10.00;;;17.40;99.90;;;;;;5099567;28;20316;-82
2022/05/28 11:36:02;;;;;;;10.55;10.25;;;17.00;99.90;;;;;;5105661;28;20224;-82
2022/05/28 11:38:40;;;;;;;10.38;10.07;;;17.20;99.90;;;;;;5116428;28;20243;-81
2022/05/28 11:41:17;;;;;;;10.60;10.30;;;17.70;99.90;;;;;;5119422;27;20233;-82
2022/05/28 11:43:59;;;;;;;10.32;10.02;;;18.00;99.90;;;;;;5115927;28;20239;-82
2022/05/28 11:46:46;;;;;;;10.40;10.10;;;18.10;99.90;;;;;;5119265;28;20221;-82
2022/05/28 11:52:34;;;;;;;10.30;10.00;;;17.80;99.90;;;;;;5118596;28;20281;-82
2022/05/28 11:55:10;;;;;;;10.35;10.05;;;18.00;99.90;;;;;;5117858;28;20251;-82
2022/05/28 11:57:45;;;;;;;10.40;10.10;;;18.30;99.90;;;;;;5117865;28;20225;-82
2022/05/28 12:00:16;;;;;;;10.63;10.32;;;18.80;99.90;;;;;;5118575;28;20259;-81
2022/05/28 12:02:49;;;;;;;10.88;10.57;;;19.40;99.90;;;;;;5115265;28;20233;-82
2022/05/28 12:05:24;;;;;;;10.70;10.40;;;20.00;99.90;;;;;;5115830;28;20225;-81
2022/05/28 12:07:59;;;;;;;10.40;10.10;;;20.00;99.90;;;;;;5116107;28;20209;-81
2022/05/28 12:10:46;;;;;;;10.70;10.40;;;19.80;99.90;;;;;;5116123;28;20300;-81
2022/05/28 12:13:32;;;;;;;10.65;10.35;;;19.50;99.90;;;;;;5112170;28;20245;-81
2022/05/28 12:16:28;;;;;;;10.90;10.60;;;19.40;99.90;;;;;;5108768;28;20230;-82
2022/05/28 12:19:01;;;;;;;10.82;10.52;;;19.20;99.90;;;;;;5108306;28;20225;-82
2022/05/28 12:21:35;;;;;;;10.48;10.18;;;19.20;99.90;;;;;;5108892;28;20233;-82
2022/05/28 12:24:12;;;;;;;10.70;10.40;;;19.60;99.90;;;;;;5107964;28;20252;-82
2022/05/28 12:26:50;;;;;;;10.40;10.10;;;19.90;99.90;;;;;;5103673;28;20241;-82
2022/05/28 12:29:44;;;;;;;10.50;10.20;;;19.30;99.90;;;;;;5103925;28;20233;-82
2022/05/28 12:32:30;;;;;;;10.65;10.35;;;19.00;99.90;;;;;;5103539;28;20244;-81
2022/05/28 12:35:05;;;;;;;10.70;10.40;;;19.00;99.90;;;;;;5104172;28;20233;-82
2022/05/28 12:37:47;;;;;;;10.90;10.60;;;19.00;99.90;;;;;;5103085;28;20225;-82
2022/05/28 12:40:29;;;;;;;10.98;10.68;;;18.60;99.90;;;;;;5103087;28;20218;-82
2022/05/28 12:43:00;;;;;;;10.80;10.50;;;18.40;99.90;;;;;;5104059;28;20237;-83
2022/05/28 12:45:40;;;;;;;10.65;10.35;;;18.20;99.90;;;;;;5103938;28;20264;-82
2022/05/28 12:48:17;;;;;;;10.60;10.30;;;18.00;99.90;;;;;;5105559;28;20285;-82
2022/05/28 12:51:19;;;;;;;10.73;10.43;;;18.00;99.90;;;;;;5107809;28;20225;-82
2022/05/28 12:53:58;;;;;;;10.77;10.48;;;18.10;99.90;;;;;;5087521;28;20316;-83
2022/05/28 12:56:43;;;;;;;10.90;10.60;;;18.10;99.90;;;;;;5103503;28;20236;-83
2022/05/28 12:59:14;;;;;;;10.45;10.15;;;18.40;99.90;;;;;;5102893;28;20221;-82
2022/05/28 13:01:58;;;;;;;10.50;10.20;;;18.60;99.90;;;;;;5103380;28;20229;-81
2022/05/28 13:04:32;;;;;;;10.18;9.88;;;18.70;99.90;;;;;;5103118;28;20253;-82
2022/05/28 13:07:02;;;;;;;10.35;10.05;;;19.00;99.90;;;;;;5103875;28;20243;-81
2022/05/28 13:09:34;;;;;;;10.82;10.52;;;19.40;99.90;;;;;;5103399;28;20240;-82
2022/05/28 13:12:19;;;;;;;10.60;10.30;;;19.90;99.90;;;;;;5102597;28;20236;-82
2022/05/28 13:15:27;;;;;;;10.60;10.30;;;20.20;99.90;;;;;;5102492;28;20253;-83
2022/05/28 13:18:38;;;;;;;10.77;10.48;;;19.70;99.90;;;;;;5102824;28;20229;-83
2022/05/28 13:21:44;;;;;;;10.68;10.38;;;19.20;99.90;;;;;;5102057;28;20300;-83
2022/05/28 13:24:55;;;;;;;10.80;10.50;;;19.10;99.90;;;;;;5092041;28;20248;-82
2022/05/28 13:27:43;;;;;;;10.70;10.40;;;19.60;99.90;;;;;;5102488;28;20279;-82